sensor_id;sensor_type;location;lat;lon;timestamp;pressure;altitude;pressure_sealevel;temperature;humidity
32320;BME280;19080;51.750;5.888;2024-03-07T00:00:12;102336.06;;;5.33;100.00
32320;BME280;19080;51.750;5.888;2024-03-07T00:02:45;102365.50;;;5.41;100.00
32320;BME280;19080;51.750;5.888;2024-03-07T00:05:12;102351.69;;;5.30;100.00
32320;BME280;19080;51.750;5.888;2024-03-07T00:07:40;102368.13;;;5.41;100.00
32320;BME280;19080;51.750;5.888;2024-03-07T00:10:07;102349.16;;;5.32;100.00
32320;BME280;19080;51.750;5.888;2024-03-07T00:12:34;102350.41;;;5.23;100.00
32320;BME280;19080;51.750;5.888;2024-03-07T00:15:03;102360.03;;;5.23;100.00
32320;BME280;19080;51.750;5.888;2024-03-07T00:17:29;102373.47;;;5.28;100.00
32320;BME280;19080;51.750;5.888;2024-03-07T00:19:56;102354.59;;;5.20;100.00
32320;BME280;19080;51.750;5.888;2024-03-07T00:22:24;102366.88;;;5.19;100.00
32320;BME280;19080;51.750;5.888;2024-03-07T00:24:53;102352.03;;;5.07;100.00
32320;BME280;19080;51.750;5.888;2024-03-07T00:27:20;102366.91;;;5.06;100.00
32320;BME280;19080;51.750;5.888;2024-03-07T00:29:48;102341.47;;;4.92;100.00
32320;BME280;19080;51.750;5.888;2024-03-07T00:32:20;102354.19;;;4.99;100.00
32320;BME280;19080;51.750;5.888;2024-03-07T00:34:48;102353.81;;;4.93;100.00
32320;BME280;19080;51.750;5.888;2024-03-07T00:37:16;102351.56;;;4.99;100.00
32320;BME280;19080;51.750;5.888;2024-03-07T00:39:42;102333.41;;;4.89;100.00
32320;BME280;19080;51.750;5.888;2024-03-07T00:42:10;102344.59;;;5.00;100.00
32320;BME280;19080;51.750;5.888;2024-03-07T00:44:37;102351.47;;;4.98;100.00
32320;BME280;19080;51.750;5.888;2024-03-07T00:47:04;102356.00;;;5.00;100.00
32320;BME280;19080;51.750;5.888;2024-03-07T00:49:31;102357.66;;;4.98;100.00
32320;BME280;19080;51.750;5.888;2024-03-07T00:51:58;102359.09;;;4.93;100.00
32320;BME280;19080;51.750;5.888;2024-03-07T00:54:26;102360.72;;;4.91;100.00
32320;BME280;19080;51.750;5.888;2024-03-07T00:56:53;102353.88;;;4.80;100.00
32320;BME280;19080;51.750;5.888;2024-03-07T00:59:21;102341.06;;;4.71;100.00
32320;BME280;19080;51.750;5.888;2024-03-07T01:01:49;102356.31;;;4.77;100.00
32320;BME280;19080;51.750;5.888;2024-03-07T01:04:16;102347.31;;;4.73;100.00
32320;BME280;19080;51.750;5.888;2024-03-07T01:06:43;102342.28;;;4.63;100.00
32320;BME280;19080;51.750;5.888;2024-03-07T01:09:10;102338.56;;;4.60;100.00
32320;BME280;19080;51.750;5.888;2024-03-07T01:11:42;102342.81;;;4.57;100.00
32320;BME280;19080;51.750;5.888;2024-03-07T01:14:10;102349.59;;;4.54;100.00
32320;BME280;19080;51.750;5.888;2024-03-07T01:16:37;102320.41;;;4.36;100.00
32320;BME280;19080;51.750;5.888;2024-03-07T01:19:04;102338.41;;;4.43;100.00
32320;BME280;19080;51.750;5.888;2024-03-07T01:21:34;102323.84;;;4.35;100.00
32320;BME280;19080;51.750;5.888;2024-03-07T01:24:05;102350.13;;;4.48;100.00
32320;BME280;19080;51.750;5.888;2024-03-07T01:26:32;102354.16;;;4.43;100.00
32320;BME280;19080;51.750;5.888;2024-03-07T01:29:02;102329.53;;;4.28;100.00
32320;BME280;19080;51.750;5.888;2024-03-07T01:31:29;102342.56;;;4.40;100.00
32320;BME280;19080;51.750;5.888;2024-03-07T01:33:56;102330.94;;;4.36;100.00
32320;BME280;19080;51.750;5.888;2024-03-07T01:36:23;102342.84;;;4.44;100.00
32320;BME280;19080;51.750;5.888;2024-03-07T01:38:49;102348.00;;;4.43;100.00
32320;BME280;19080;51.750;5.888;2024-03-07T01:41:16;102325.66;;;4.36;100.00
32320;BME280;19080;51.750;5.888;2024-03-07T01:43:43;102327.69;;;4.40;100.00
32320;BME280;19080;51.750;5.888;2024-03-07T01:46:10;102316.97;;;4.37;100.00
32320;BME280;19080;51.750;5.888;2024-03-07T01:48:38;102327.69;;;4.40;100.00
32320;BME280;19080;51.750;5.888;2024-03-07T01:51:07;102299.00;;;4.30;100.00
32320;BME280;19080;51.750;5.888;2024-03-07T01:53:34;102305.94;;;4.43;100.00
32320;BME280;19080;51.750;5.888;2024-03-07T01:56:02;102322.09;;;4.49;100.00
32320;BME280;19080;51.750;5.888;2024-03-07T01:58:30;102293.50;;;4.40;100.00
32320;BME280;19080;51.750;5.888;2024-03-07T02:01:00;102304.72;;;4.51;100.00
32320;BME280;19080;51.750;5.888;2024-03-07T02:03:27;102312.97;;;4.57;100.00
32320;BME280;19080;51.750;5.888;2024-03-07T02:05:56;102292.06;;;4.45;100.00
32320;BME280;19080;51.750;5.888;2024-03-07T02:08:23;102302.47;;;4.57;100.00
32320;BME280;19080;51.750;5.888;2024-03-07T02:10:49;102294.19;;;4.51;100.00
32320;BME280;19080;51.750;5.888;2024-03-07T02:13:16;102309.44;;;4.56;100.00
32320;BME280;19080;51.750;5.888;2024-03-07T02:15:44;102276.94;;;4.41;100.00
32320;BME280;19080;51.750;5.888;2024-03-07T02:18:10;102303.38;;;4.57;100.00
32320;BME280;19080;51.750;5.888;2024-03-07T02:20:42;102300.75;;;4.57;100.00
32320;BME280;19080;51.750;5.888;2024-03-07T02:23:09;102298.19;;;4.59;100.00
32320;BME280;19080;51.750;5.888;2024-03-07T02:25:36;102276.03;;;4.41;100.00
32320;BME280;19080;51.750;5.888;2024-03-07T02:28:04;102301.56;;;4.56;100.00
32320;BME280;19080;51.750;5.888;2024-03-07T02:30:31;102296.91;;;4.52;100.00
32320;BME280;19080;51.750;5.888;2024-03-07T02:32:59;102284.38;;;4.48;100.00
32320;BME280;19080;51.750;5.888;2024-03-07T02:35:34;102303.38;;;4.57;100.00
32320;BME280;19080;51.750;5.888;2024-03-07T02:38:05;102303.56;;;4.61;100.00
32320;BME280;19080;51.750;5.888;2024-03-07T02:40:32;102290.66;;;4.50;100.00
32320;BME280;19080;51.750;5.888;2024-03-07T02:42:59;102293.66;;;4.56;100.00
32320;BME280;19080;51.750;5.888;2024-03-07T02:45:26;102279.22;;;4.50;100.00
32320;BME280;19080;51.750;5.888;2024-03-07T02:47:53;102282.56;;;4.47;100.00
32320;BME280;19080;51.750;5.888;2024-03-07T02:50:21;102297.44;;;4.47;100.00
32320;BME280;19080;51.750;5.888;2024-03-07T02:52:51;102294.19;;;4.51;100.00
32320;BME280;19080;51.750;5.888;2024-03-07T02:55:19;102288.03;;;4.50;100.00
32320;BME280;19080;51.750;5.888;2024-03-07T02:57:47;102289.94;;;4.53;100.00
32320;BME280;19080;51.750;5.888;2024-03-07T03:00:14;102290.56;;;4.49;100.00
32320;BME280;19080;51.750;5.888;2024-03-07T03:02:50;102260.56;;;4.32;100.00
32320;BME280;19080;51.750;5.888;2024-03-07T03:05:16;102287.13;;;4.50;100.00
32320;BME280;19080;51.750;5.888;2024-03-07T03:07:45;102277.75;;;4.40;100.00
32320;BME280;19080;51.750;5.888;2024-03-07T03:10:21;102285.00;;;4.44;100.00
32320;BME280;19080;51.750;5.888;2024-03-07T03:12:55;102277.13;;;4.44;100.00
32320;BME280;19080;51.750;5.888;2024-03-07T03:15:26;102275.81;;;4.38;100.00
32320;BME280;19080;51.750;5.888;2024-03-07T03:17:53;102280.19;;;4.37;100.00
32320;BME280;19080;51.750;5.888;2024-03-07T03:20:20;102273.09;;;4.36;100.00
32320;BME280;19080;51.750;5.888;2024-03-07T03:22:53;102265.44;;;4.26;100.00
32320;BME280;19080;51.750;5.888;2024-03-07T03:25:41;102256.56;;;4.24;100.00
32320;BME280;19080;51.750;5.888;2024-03-07T03:28:08;102273.81;;;4.34;100.00
32320;BME280;19080;51.750;5.888;2024-03-07T03:30:40;102264.00;;;4.31;100.00
32320;BME280;19080;51.750;5.888;2024-03-07T03:33:10;102263.09;;;4.31;100.00
32320;BME280;19080;51.750;5.888;2024-03-07T03:35:37;102256.06;;;4.16;100.00
32320;BME280;19080;51.750;5.888;2024-03-07T03:38:05;102256.16;;;4.18;100.00
32320;BME280;19080;51.750;5.888;2024-03-07T03:40:33;102272.75;;;4.17;100.00
32320;BME280;19080;51.750;5.888;2024-03-07T03:43:00;102254.06;;;4.12;100.00
32320;BME280;19080;51.750;5.888;2024-03-07T03:45:27;102275.38;;;4.17;100.00
32320;BME280;19080;51.750;5.888;2024-03-07T03:47:54;102270.31;;;4.20;100.00
32320;BME280;19080;51.750;5.888;2024-03-07T03:50:21;102269.50;;;4.21;100.00
32320;BME280;19080;51.750;5.888;2024-03-07T03:52:51;102267.38;;;4.15;100.00
32320;BME280;19080;51.750;5.888;2024-03-07T03:55:18;102268.09;;;4.13;100.00
32320;BME280;19080;51.750;5.888;2024-03-07T03:57:45;102262.84;;;4.13;100.00
32320;BME280;19080;51.750;5.888;2024-03-07T04:00:13;102255.78;;;4.12;100.00
32320;BME280;19080;51.750;5.888;2024-03-07T04:02:44;102270.13;;;4.17;100.00
32320;BME280;19080;51.750;5.888;2024-03-07T04:05:17;102221.88;;;3.88;100.00
32320;BME280;19080;51.750;5.888;2024-03-07T04:07:45;102254.47;;;4.05;100.00
32320;BME280;19080;51.750;5.888;2024-03-07T04:10:12;102264.47;;;4.11;100.00
32320;BME280;19080;51.750;5.888;2024-03-07T04:12:40;102239.03;;;3.97;100.00
32320;BME280;19080;51.750;5.888;2024-03-07T04:15:08;102257.53;;;3.98;100.00
32320;BME280;19080;51.750;5.888;2024-03-07T04:17:36;102256.50;;;3.96;100.00
32320;BME280;19080;51.750;5.888;2024-03-07T04:20:04;102265.69;;;4.03;100.00
32320;BME280;19080;51.750;5.888;2024-03-07T04:22:34;102222.69;;;3.87;100.00
32320;BME280;19080;51.750;5.888;2024-03-07T04:25:01;102224.31;;;3.85;100.00
32320;BME280;19080;51.750;5.888;2024-03-07T04:27:28;102244.91;;;3.92;100.00
32320;BME280;19080;51.750;5.888;2024-03-07T04:29:55;102254.59;;;3.93;100.00
32320;BME280;19080;51.750;5.888;2024-03-07T04:32:22;102247.34;;;3.89;100.00
32320;BME280;19080;51.750;5.888;2024-03-07T04:34:50;102231.69;;;3.78;100.00
32320;BME280;19080;51.750;5.888;2024-03-07T04:37:16;102245.22;;;3.84;100.00
32320;BME280;19080;51.750;5.888;2024-03-07T04:39:43;102230.28;;;3.70;100.00
32320;BME280;19080;51.750;5.888;2024-03-07T04:42:10;102240.38;;;3.77;100.00
32320;BME280;19080;51.750;5.888;2024-03-07T04:44:37;102251.47;;;3.86;100.00
32320;BME280;19080;51.750;5.888;2024-03-07T04:47:04;102252.78;;;3.79;100.00
32320;BME280;19080;51.750;5.888;2024-03-07T04:49:32;102253.81;;;3.81;100.00
32320;BME280;19080;51.750;5.888;2024-03-07T04:52:00;102230.28;;;3.70;100.00
32320;BME280;19080;51.750;5.888;2024-03-07T04:54:29;102203.03;;;3.54;100.00
32320;BME280;19080;51.750;5.888;2024-03-07T04:56:56;102221.19;;;3.65;100.00
32320;BME280;19080;51.750;5.888;2024-03-07T04:59:23;102216.03;;;3.66;100.00
32320;BME280;19080;51.750;5.888;2024-03-07T05:01:50;102247.75;;;3.82;100.00
32320;BME280;19080;51.750;5.888;2024-03-07T05:04:17;102254.00;;;3.84;100.00
32320;BME280;19080;51.750;5.888;2024-03-07T05:06:45;102248.34;;;3.78;100.00
32320;BME280;19080;51.750;5.888;2024-03-07T05:09:14;102251.78;;;3.77;100.00
32320;BME280;19080;51.750;5.888;2024-03-07T05:11:52;102215.44;;;3.57;100.00
32320;BME280;19080;51.750;5.888;2024-03-07T05:14:19;102222.63;;;3.59;100.00
32320;BME280;19080;51.750;5.888;2024-03-07T05:16:48;102256.13;;;3.77;100.00
32320;BME280;19080;51.750;5.888;2024-03-07T05:19:32;102253.00;;;3.69;100.00
32320;BME280;19080;51.750;5.888;2024-03-07T05:22:00;102254.03;;;3.71;100.00
32320;BME280;19080;51.750;5.888;2024-03-07T05:24:26;102239.88;;;3.56;100.00
32320;BME280;19080;51.750;5.888;2024-03-07T05:26:53;102249.97;;;3.63;100.00
32320;BME280;19080;51.750;5.888;2024-03-07T05:29:20;102253.91;;;3.70;100.00
32320;BME280;19080;51.750;5.888;2024-03-07T05:31:48;102252.00;;;3.67;100.00
32320;BME280;19080;51.750;5.888;2024-03-07T05:34:15;102218.47;;;3.50;100.00
32320;BME280;19080;51.750;5.888;2024-03-07T05:36:46;102251.50;;;3.59;100.00
32320;BME280;19080;51.750;5.888;2024-03-07T05:39:15;102260.09;;;3.57;100.00
32320;BME280;19080;51.750;5.888;2024-03-07T05:41:43;102266.34;;;3.59;100.00
32320;BME280;19080;51.750;5.888;2024-03-07T05:46:19;102243.03;;;3.50;100.00
32320;BME280;19080;51.750;5.888;2024-03-07T05:48:46;102243.66;;;3.46;100.00
32320;BME280;19080;51.750;5.888;2024-03-07T05:51:16;102244.72;;;3.50;100.00
32320;BME280;19080;51.750;5.888;2024-03-07T05:53:43;102248.97;;;3.48;100.00
32320;BME280;19080;51.750;5.888;2024-03-07T05:56:11;102251.81;;;3.51;100.00
32320;BME280;19080;51.750;5.888;2024-03-07T05:58:37;102257.06;;;3.51;100.00
32320;BME280;19080;51.750;5.888;2024-03-07T06:01:04;102256.25;;;3.52;100.00
32320;BME280;19080;51.750;5.888;2024-03-07T06:03:31;102253.97;;;3.43;100.00
32320;BME280;19080;51.750;5.888;2024-03-07T06:05:58;102249.63;;;3.44;100.00
32320;BME280;19080;51.750;5.888;2024-03-07T06:08:25;102220.53;;;3.28;100.00
32320;BME280;19080;51.750;5.888;2024-03-07T06:10:52;102255.78;;;3.44;100.00
32320;BME280;19080;51.750;5.888;2024-03-07T06:13:19;102256.84;;;3.48;100.00
32320;BME280;19080;51.750;5.888;2024-03-07T06:15:46;102248.59;;;3.42;100.00
32320;BME280;19080;51.750;5.888;2024-03-07T06:18:14;102253.41;;;3.49;100.00
32320;BME280;19080;51.750;5.888;2024-03-07T06:20:42;102250.69;;;3.47;100.00
32320;BME280;19080;51.750;5.888;2024-03-07T06:23:09;102269.38;;;3.52;100.00
32320;BME280;19080;51.750;5.888;2024-03-07T06:25:39;102253.50;;;3.50;100.00
32320;BME280;19080;51.750;5.888;2024-03-07T06:28:17;102257.97;;;3.51;100.00
32320;BME280;19080;51.750;5.888;2024-03-07T06:30:45;102243.34;;;3.42;100.00
32320;BME280;19080;51.750;5.888;2024-03-07T06:33:13;102258.06;;;3.53;100.00
32320;BME280;19080;51.750;5.888;2024-03-07T06:35:45;102261.50;;;3.65;100.00
32320;BME280;19080;51.750;5.888;2024-03-07T06:38:12;102249.69;;;3.58;100.00
32320;BME280;19080;51.750;5.888;2024-03-07T06:40:41;102266.13;;;3.69;100.00
32320;BME280;19080;51.750;5.888;2024-03-07T06:43:10;102258.25;;;3.69;100.00
32320;BME280;19080;51.750;5.888;2024-03-07T06:45:38;102257.75;;;3.75;100.00
32320;BME280;19080;51.750;5.888;2024-03-07T06:48:08;102255.63;;;3.82;100.00
32320;BME280;19080;51.750;5.888;2024-03-07T06:50:37;102258.53;;;3.87;100.00
32320;BME280;19080;51.750;5.888;2024-03-07T06:53:05;102249.06;;;3.89;100.00
32320;BME280;19080;51.750;5.888;2024-03-07T06:55:36;102233.00;;;3.84;100.00
32320;BME280;19080;51.750;5.888;2024-03-07T06:58:03;102257.00;;;4.04;100.00
32320;BME280;19080;51.750;5.888;2024-03-07T07:00:33;102256.78;;;4.14;100.00
32320;BME280;19080;51.750;5.888;2024-03-07T07:03:04;102250.91;;;4.18;100.00
32320;BME280;19080;51.750;5.888;2024-03-07T07:05:31;102256.66;;;4.25;100.00
32320;BME280;19080;51.750;5.888;2024-03-07T07:07:57;102257.72;;;4.42;100.00
32320;BME280;19080;51.750;5.888;2024-03-07T07:10:24;102251.81;;;5.48;100.00
32320;BME280;19080;51.750;5.888;2024-03-07T07:12:51;102244.03;;;6.59;100.00
32320;BME280;19080;51.750;5.888;2024-03-07T07:15:21;102248.31;;;7.59;100.00
32320;BME280;19080;51.750;5.888;2024-03-07T07:17:49;102237.69;;;8.12;100.00
32320;BME280;19080;51.750;5.888;2024-03-07T07:20:18;102247.06;;;8.81;100.00
32320;BME280;19080;51.750;5.888;2024-03-07T07:22:46;102231.69;;;9.54;100.00
32320;BME280;19080;51.750;5.888;2024-03-07T07:25:14;102233.63;;;10.01;100.00
32320;BME280;19080;51.750;5.888;2024-03-07T07:30:12;102246.78;;;10.67;100.00
32320;BME280;19080;51.750;5.888;2024-03-07T07:32:39;102235.34;;;10.93;100.00
32320;BME280;19080;51.750;5.888;2024-03-07T07:35:07;102240.00;;;11.50;100.00
32320;BME280;19080;51.750;5.888;2024-03-07T07:37:40;102213.16;;;11.69;100.00
32320;BME280;19080;51.750;5.888;2024-03-07T07:40:07;102225.81;;;11.24;100.00
32320;BME280;19080;51.750;5.888;2024-03-07T07:42:36;102220.94;;;11.90;100.00
32320;BME280;19080;51.750;5.888;2024-03-07T07:45:06;102226.75;;;12.05;99.29
32320;BME280;19080;51.750;5.888;2024-03-07T07:47:33;102227.09;;;12.17;100.00
32320;BME280;19080;51.750;5.888;2024-03-07T07:50:04;102226.22;;;12.77;91.04
32320;BME280;19080;51.750;5.888;2024-03-07T07:55:09;102224.63;;;12.83;80.48
32320;BME280;19080;51.750;5.888;2024-03-07T07:57:45;102226.16;;;12.75;80.21
32320;BME280;19080;51.750;5.888;2024-03-07T08:00:13;102215.75;;;13.16;76.27
32320;BME280;19080;51.750;5.888;2024-03-07T08:02:50;102236.34;;;13.54;74.35
32320;BME280;19080;51.750;5.888;2024-03-07T08:05:20;102217.38;;;13.44;71.36
32320;BME280;19080;51.750;5.888;2024-03-07T08:07:51;102221.06;;;13.49;72.79
32320;BME280;19080;51.750;5.888;2024-03-07T08:10:19;102229.19;;;13.91;68.83
32320;BME280;19080;51.750;5.888;2024-03-07T08:12:47;102212.47;;;13.98;67.36
32320;BME280;19080;51.750;5.888;2024-03-07T08:15:15;102223.16;;;14.79;64.72
32320;BME280;19080;51.750;5.888;2024-03-07T08:17:43;102227.72;;;14.85;63.37
32320;BME280;19080;51.750;5.888;2024-03-07T08:20:11;102233.59;;;14.67;62.23
32320;BME280;19080;51.750;5.888;2024-03-07T08:22:42;102218.47;;;14.68;63.23
32320;BME280;19080;51.750;5.888;2024-03-07T08:25:10;102228.47;;;15.24;60.33
32320;BME280;19080;51.750;5.888;2024-03-07T08:27:39;102219.38;;;15.15;59.67
32320;BME280;19080;51.750;5.888;2024-03-07T08:30:10;102217.38;;;15.51;59.22
32320;BME280;19080;51.750;5.888;2024-03-07T08:32:48;102225.81;;;15.76;57.92
32320;BME280;19080;51.750;5.888;2024-03-07T08:35:16;102221.44;;;15.82;56.64
32320;BME280;19080;51.750;5.888;2024-03-07T08:37:47;102218.28;;;16.09;54.63
32320;BME280;19080;51.750;5.888;2024-03-07T08:40:23;102223.72;;;16.15;55.61
32320;BME280;19080;51.750;5.888;2024-03-07T08:42:55;102217.22;;;16.63;54.14
32320;BME280;19080;51.750;5.888;2024-03-07T08:45:23;102225.03;;;16.45;53.03
32320;BME280;19080;51.750;5.888;2024-03-07T08:47:51;102224.16;;;16.46;53.53
32320;BME280;19080;51.750;5.888;2024-03-07T08:50:19;102214.09;;;16.98;52.94
32320;BME280;19080;51.750;5.888;2024-03-07T08:52:47;102209.19;;;17.51;51.53
32320;BME280;19080;51.750;5.888;2024-03-07T08:55:24;102219.84;;;17.40;50.42
32320;BME280;19080;51.750;5.888;2024-03-07T08:57:52;102202.94;;;17.52;50.95
32320;BME280;19080;51.750;5.888;2024-03-07T09:00:19;102213.44;;;18.41;49.84
32320;BME280;19080;51.750;5.888;2024-03-07T09:02:58;102200.19;;;19.10;48.22
32320;BME280;19080;51.750;5.888;2024-03-07T09:05:29;102197.50;;;18.85;46.01
32320;BME280;19080;51.750;5.888;2024-03-07T09:07:58;102208.25;;;18.85;45.39
32320;BME280;19080;51.750;5.888;2024-03-07T09:10:25;102200.91;;;18.49;45.23
32320;BME280;19080;51.750;5.888;2024-03-07T09:12:53;102181.03;;;18.14;44.94
32320;BME280;19080;51.750;5.888;2024-03-07T09:15:21;102194.63;;;17.18;46.33
32320;BME280;19080;51.750;5.888;2024-03-07T09:17:50;102199.22;;;17.30;46.38
32320;BME280;19080;51.750;5.888;2024-03-07T09:20:17;102208.13;;;17.28;46.85
32320;BME280;19080;51.750;5.888;2024-03-07T09:22:46;102196.56;;;17.39;47.29
32320;BME280;19080;51.750;5.888;2024-03-07T09:25:17;102192.34;;;17.66;45.38
32320;BME280;19080;51.750;5.888;2024-03-07T09:27:46;102188.81;;;17.73;45.60
32320;BME280;19080;51.750;5.888;2024-03-07T09:30:13;102185.88;;;17.45;45.21
32320;BME280;19080;51.750;5.888;2024-03-07T09:32:42;102188.03;;;17.86;45.10
32320;BME280;19080;51.750;5.888;2024-03-07T09:35:10;102174.50;;;17.75;44.76
32320;BME280;19080;51.750;5.888;2024-03-07T09:37:42;102179.09;;;17.90;45.13
32320;BME280;19080;51.750;5.888;2024-03-07T09:40:11;102159.38;;;17.86;44.18
32320;BME280;19080;51.750;5.888;2024-03-07T09:42:49;102163.88;;;17.89;44.13
32320;BME280;19080;51.750;5.888;2024-03-07T09:45:20;102168.34;;;17.88;44.19
32320;BME280;19080;51.750;5.888;2024-03-07T09:47:50;102165.88;;;18.28;42.62
32320;BME280;19080;51.750;5.888;2024-03-07T09:50:21;102169.34;;;18.07;43.78
32320;BME280;19080;51.750;5.888;2024-03-07T09:52:50;102172.09;;;18.16;42.91
32320;BME280;19080;51.750;5.888;2024-03-07T09:55:19;102164.66;;;17.73;43.20
32320;BME280;19080;51.750;5.888;2024-03-07T09:57:48;102177.03;;;17.58;43.87
32320;BME280;19080;51.750;5.888;2024-03-07T10:00:17;102169.06;;;17.66;43.79
32320;BME280;19080;51.750;5.888;2024-03-07T10:02:58;102158.53;;;16.87;43.45
32320;BME280;19080;51.750;5.888;2024-03-07T10:05:30;102159.84;;;17.32;42.99
32320;BME280;19080;51.750;5.888;2024-03-07T10:07:58;102162.84;;;17.69;43.13
32320;BME280;19080;51.750;5.888;2024-03-07T10:10:25;102150.31;;;16.71;42.06
32320;BME280;19080;51.750;5.888;2024-03-07T10:12:52;102161.63;;;15.82;42.74
32320;BME280;19080;51.750;5.888;2024-03-07T10:15:29;102166.16;;;14.80;44.69
32320;BME280;19080;51.750;5.888;2024-03-07T10:17:55;102154.97;;;15.55;45.24
32320;BME280;19080;51.750;5.888;2024-03-07T10:20:23;102123.13;;;15.72;44.77
32320;BME280;19080;51.750;5.888;2024-03-07T10:22:51;102156.38;;;16.56;44.50
32320;BME280;19080;51.750;5.888;2024-03-07T10:25:19;102149.50;;;16.79;43.22
32320;BME280;19080;51.750;5.888;2024-03-07T10:27:48;102149.38;;;16.67;42.60
32320;BME280;19080;51.750;5.888;2024-03-07T10:30:17;102152.59;;;17.20;42.86
32320;BME280;19080;51.750;5.888;2024-03-07T10:32:51;102129.78;;;16.74;43.63
32320;BME280;19080;51.750;5.888;2024-03-07T10:35:21;102138.59;;;16.64;44.33
32320;BME280;19080;51.750;5.888;2024-03-07T10:37:49;102132.72;;;16.99;43.90
32320;BME280;19080;51.750;5.888;2024-03-07T10:40:16;102152.84;;;15.90;44.21
32320;BME280;19080;51.750;5.888;2024-03-07T10:42:46;102122.38;;;15.82;45.02
32320;BME280;19080;51.750;5.888;2024-03-07T10:45:19;102080.19;;;16.36;44.81
32320;BME280;19080;51.750;5.888;2024-03-07T10:47:56;102078.31;;;17.13;43.20
32320;BME280;19080;51.750;5.888;2024-03-07T10:53:08;102121.63;;;17.67;42.35
32320;BME280;19080;51.750;5.888;2024-03-07T10:55:41;102130.66;;;17.78;42.34
32320;BME280;19080;51.750;5.888;2024-03-07T10:58:31;102134.00;;;17.46;43.45
32320;BME280;19080;51.750;5.888;2024-03-07T11:01:01;102135.88;;;17.60;44.29
32320;BME280;19080;51.750;5.888;2024-03-07T11:03:31;102124.06;;;17.30;44.06
32320;BME280;19080;51.750;5.888;2024-03-07T11:06:00;102128.88;;;17.80;44.64
32320;BME280;19080;51.750;5.888;2024-03-07T11:08:34;102103.88;;;17.88;43.49
32320;BME280;19080;51.750;5.888;2024-03-07T11:11:01;102101.88;;;17.60;42.69
32320;BME280;19080;51.750;5.888;2024-03-07T11:13:29;102121.31;;;17.24;43.57
32320;BME280;19080;51.750;5.888;2024-03-07T11:15:58;102124.06;;;17.32;43.42
32320;BME280;19080;51.750;5.888;2024-03-07T11:18:26;102106.34;;;16.58;43.76
32320;BME280;19080;51.750;5.888;2024-03-07T11:20:53;102126.81;;;15.80;45.09
32320;BME280;19080;51.750;5.888;2024-03-07T11:23:30;102128.03;;;15.43;46.15
32320;BME280;19080;51.750;5.888;2024-03-07T11:26:07;102117.59;;;15.58;46.60
32320;BME280;19080;51.750;5.888;2024-03-07T11:28:36;102095.34;;;15.64;45.85
32320;BME280;19080;51.750;5.888;2024-03-07T11:31:27;102128.13;;;16.11;44.81
32320;BME280;19080;51.750;5.888;2024-03-07T11:36:42;102107.47;;;16.75;44.44
32320;BME280;19080;51.750;5.888;2024-03-07T11:39:46;102108.00;;;16.47;44.53
32320;BME280;19080;51.750;5.888;2024-03-07T11:42:26;102102.78;;;16.59;43.95
32320;BME280;19080;51.750;5.888;2024-03-07T11:44:55;102070.97;;;16.09;44.84
32320;BME280;19080;51.750;5.888;2024-03-07T11:47:27;102095.28;;;16.27;44.71
32320;BME280;19080;51.750;5.888;2024-03-07T11:50:02;102088.06;;;15.54;45.42
32320;BME280;19080;51.750;5.888;2024-03-07T11:52:35;102086.91;;;15.38;46.01
32320;BME280;19080;51.750;5.888;2024-03-07T11:55:03;102085.50;;;15.60;45.90
32320;BME280;19080;51.750;5.888;2024-03-07T11:57:31;102082.22;;;15.84;46.08
32320;BME280;19080;51.750;5.888;2024-03-07T12:00:02;102063.81;;;16.08;45.55
32320;BME280;19080;51.750;5.888;2024-03-07T12:02:38;102072.94;;;16.25;44.86
32320;BME280;19080;51.750;5.888;2024-03-07T12:05:07;102080.78;;;16.10;44.79
32320;BME280;19080;51.750;5.888;2024-03-07T12:07:33;102069.59;;;15.74;45.81
32320;BME280;19080;51.750;5.888;2024-03-07T12:10:02;102046.22;;;15.57;46.52
32320;BME280;19080;51.750;5.888;2024-03-07T12:12:33;102048.31;;;15.83;45.91
32320;BME280;19080;51.750;5.888;2024-03-07T12:15:00;102056.78;;;15.51;46.65
32320;BME280;19080;51.750;5.888;2024-03-07T12:17:31;102017.63;;;15.56;46.70
32320;BME280;19080;51.750;5.888;2024-03-07T12:19:58;102051.78;;;15.76;46.99
32320;BME280;19080;51.750;5.888;2024-03-07T12:22:29;102018.91;;;15.87;47.18
32320;BME280;19080;51.750;5.888;2024-03-07T12:25:02;102027.38;;;16.25;46.78
32320;BME280;19080;51.750;5.888;2024-03-07T12:27:29;102035.56;;;16.39;47.24
32320;BME280;19080;51.750;5.888;2024-03-07T12:29:56;102033.69;;;16.31;46.99
32320;BME280;19080;51.750;5.888;2024-03-07T12:32:23;102020.44;;;15.69;47.66
32320;BME280;19080;51.750;5.888;2024-03-07T12:34:52;102005.38;;;15.75;47.61
32320;BME280;19080;51.750;5.888;2024-03-07T12:37:19;102030.78;;;16.09;48.61
32320;BME280;19080;51.750;5.888;2024-03-07T12:39:53;102007.81;;;16.33;47.73
32320;BME280;19080;51.750;5.888;2024-03-07T12:42:28;102024.09;;;16.54;47.58
32320;BME280;19080;51.750;5.888;2024-03-07T12:44:57;102013.78;;;16.06;48.07
32320;BME280;19080;51.750;5.888;2024-03-07T12:47:26;102020.03;;;16.06;48.98
32320;BME280;19080;51.750;5.888;2024-03-07T12:49:52;101990.94;;;15.62;49.27
32320;BME280;19080;51.750;5.888;2024-03-07T12:52:19;101997.06;;;15.54;50.64
32320;BME280;19080;51.750;5.888;2024-03-07T12:54:46;101990.06;;;15.65;51.60
32320;BME280;19080;51.750;5.888;2024-03-07T12:57:14;101968.69;;;15.68;50.52
32320;BME280;19080;51.750;5.888;2024-03-07T12:59:41;101979.22;;;15.53;51.47
32320;BME280;19080;51.750;5.888;2024-03-07T13:02:12;101967.84;;;15.71;50.83
32320;BME280;19080;51.750;5.888;2024-03-07T13:04:39;101962.63;;;15.83;51.34
32320;BME280;19080;51.750;5.888;2024-03-07T13:07:09;101994.47;;;16.39;51.35
32320;BME280;19080;51.750;5.888;2024-03-07T13:09:37;101959.47;;;16.20;50.25
32320;BME280;19080;51.750;5.888;2024-03-07T13:12:10;101992.31;;;15.33;51.80